Main page
METAR-TAF:

METAR-TAF

Airports :

Gregorio Luperón International Airport

Puerto Plata, Dominican Republic

latitude: 19-45N, longitude: 070-33W, elevation: 15 m

Current weather observation

The report was made 54 minutes ago, at 01:00 UTC
Calm wind
Temperature 28°C
Humidity 84%
Pressure 1014 hPa
Visibility 10 km or more
Scattered clouds at a height of 1800 ft

METAR: MDPP 160100Z 00000KT 9999 SCT018 28/25 Q1014

Time: 21:54 (01:54 UTC)

Forecast

The report was made 15 hours and 54 minutes ago, at 10:00 UTC
Forecast valid from 15 at 12 UTC to 16 at 12 UTC
Wind kt from the North
Visibility 10 km or more
Scattered clouds at a height of 1800 ft
Becoming
from 15 at 14 UTC to 15 at 16 UTC
Wind 10 kt from the East

TAF: MDPP 151000Z 1512/1612 00000KT 9999 SCT018 BECMG 1514/1516 09010KT

Weather observations and forecasts of more than 4000 airports (METAR and TAF reports).

The available stations are represented by yellow and red dots on the map.

Hover mouse over dot to see the name of the station.

Then click to see weather observations and forecasts.

To change the map : click on the green buttons with a black cross to zoom in, on the green button with a dash to zoom out, or on the green arrows for adjacent maps.


METAR-TAF: